Flight Track Log - Related Links

Times and Time Zones

All times are in EDT time to prevent confusion due to time zone crossing. See the N450S flight status page for this flight to view local times or setup timezone preferences in your user account.

Time Position Orientation Groundspeed Altitude Reporting Facility
EDT Latitude Longitude Course Direction KTS MPH feet Rate Location/Type
Fri 08:46:53 41.5061 -81.7089 285° West 138 159 1,400  Level Cleveland Center
Fri 08:47:23 41.5122 -81.7394 285° West 165 190 1,900 558 Climbing Cleveland Center
Fri 08:48:19 41.5578 -81.7569 344° North 234 269 2,200 1,034 Climbing Cleveland Center
Fri 08:49:19 41.6106 -81.7106 33° Northeast 220 253 3,900 1,785 Climbing Cleveland Center
Fri 08:50:20 41.6111 -81.6414 89° East 192 221 5,800 1,779 Climbing Cleveland Center
Fri 08:51:44 41.5489 -81.6069 157° South 186 214 8,200 1,333 Climbing Cleveland Center
Fri 08:52:44 41.4928 -81.5922 169° South 185 213 9,000 400 Climbing Cleveland Center
Fri 08:53:44 41.4261 -81.5689 165° South 231 266 9,000 350 Level Cleveland Center
Fri 08:54:44 41.3642 -81.5267 153° Southeast 244 281 9,700 1,200 Climbing Cleveland Center
Fri 08:55:44 41.3208 -81.4622 132° Southeast 244 281 11,400 1,700 Climbing Cleveland Center
Fri 08:56:44 41.2753 -81.4119 140° Southeast 226 260 13,100 1,700 Climbing Cleveland Center
Fri 08:57:44 41.2381 -81.3672 138° Southeast 214 246 14,800 1,700 Climbing Cleveland Center
Fri 08:58:44 41.1947 -81.3144 137° Southeast 209 241 16,500 1,500 Climbing Cleveland Center
Fri 08:59:44 41.1617 -81.2506 124° Southeast 209 241 17,800 1,350 Climbing Cleveland Center
Fri 09:00:44 41.1308 -81.1731 118° Southeast 209 241 19,200 1,350 Climbing Cleveland Center
Fri 09:01:44 41.1083 -81.0956 111° Southeast 220 253 20,500 1,250 Climbing Cleveland Center
Fri 09:02:44 41.0858 -81.0156 110° East 220 253 21,700 1,200 Climbing Cleveland Center
Fri 09:03:44 41.0631 -80.9383 111° Southeast 226 260 22,900 650 Climbing Cleveland Center
Fri 09:04:44 41.0383 -80.8583 112° Southeast 226 260 23,000 50 Climbing Cleveland Center
Fri 09:05:44 41.0072 -80.7647 114° Southeast 248 285 23,000  Level Cleveland Center
Fri 09:06:44 40.9781 -80.6656 111° Southeast 275 316 23,000  Level Cleveland Center
Fri 09:07:44 40.9469 -80.5667 113° Southeast 285 328 23,000  Level Cleveland Center
Fri 09:08:44 40.9156 -80.4650 112° Southeast 290 334 23,000  Level Cleveland Center
Fri 09:09:44 40.8842 -80.3633 112° Southeast 296 341 23,000  Level Cleveland Center
Fri 09:10:44 40.8525 -80.2675 114° Southeast 290 334 23,000  Level Cleveland Center
Fri 09:11:44 40.8211 -80.1661 112° Southeast 290 334 23,000  Level Cleveland Center
Fri 09:12:44 40.7914 -80.0675 112° Southeast 295 339 23,000  Level Cleveland Center
Fri 09:13:44 40.7681 -79.9636 106° East 295 339 23,000  Level Cleveland Center
Fri 09:14:44 40.7528 -79.8567 101° East 290 334 23,000  Level Cleveland Center
Fri 09:15:44 40.7394 -79.7500 99° East 290 334 23,000  Level Cleveland Center
Fri 09:16:44 40.7219 -79.6433 102° East 290 334 23,000  Level Cleveland Center
Fri 09:17:44 40.7086 -79.5422 100° East 295 339 23,000  Level Cleveland Center
Fri 09:18:44 40.6911 -79.4358 102° East 295 339 23,000  Level Cleveland Center
Fri 09:19:44 40.6753 -79.3319 101° East 295 339 23,000  Level Cleveland Center
Fri 09:20:44 40.6594 -79.2283 101° East 295 339 23,000  Level Cleveland Center
Fri 09:21:44 40.6436 -79.1247 101° East 295 339 23,000  Level Cleveland Center
Fri 09:22:44 40.6256 -79.0183 103° East 295 339 23,000  Level Cleveland Center
Fri 09:23:44 40.6097 -78.9256 103° East 295 339 23,000  Level Cleveland Center
Fri 09:24:44 40.5933 -78.8194 101° East 295 339 23,000  Level Cleveland Center
Fri 09:25:44 40.5772 -78.7189 102° East 295 339 23,000  Level Cleveland Center
Fri 09:26:44 40.5586 -78.6044 102° East 295 339 23,000  Level Cleveland Center
Fri 09:27:44 40.5422 -78.4983 101° East 295 339 23,000  Level Cleveland Center
Fri 09:28:44 40.5256 -78.3950 102° East 295 339 23,000  Level Cleveland Center
Fri 09:30:11 40.5003 -78.2447 102° East 298 343 23,000 -41 Level New York Center
Fri 09:31:11 40.4839 -78.1419 102° East 298 343 22,900 -446 Descending New York Center
Fri 09:32:12 40.4656 -78.0336 103° East 298 343 22,100 -504 Descending New York Center
Fri 09:33:10 40.4492 -77.9256 101° East 304 350 21,900 -605 Descending New York Center
Fri 09:34:11 40.4286 -77.8142 104° East 304 350 20,900 -885 Descending New York Center
Fri 09:35:12 40.4119 -77.7117 102° East 304 350 20,100 -864 Descending New York Center
Fri 09:36:09 40.3956 -77.5981 101° East 309 356 19,200 -559 Descending New York Center
Fri 09:37:10 40.3711 -77.4786 105° East 314 361 19,000 -98 Descending New York Center
Fri 09:38:11 40.3553 -77.3872 103° East 296 341 19,000 -303 Level New York Center
Fri 09:39:09 40.3367 -77.2736 102° East 291 335 18,400 -605 Descending New York Center
Fri 09:40:10 40.3189 -77.1767 103° East 298 343 17,800 -590 Descending New York Center
Fri 09:41:11 40.2981 -77.0606 103° East 298 343 17,200 -397 Descending New York Center
Fri 09:42:11 40.2608 -76.9753 120° Southeast 298 343 17,000 -99 Descending New York Center
Fri 09:43:12 40.2183 -76.8711 118° Southeast 298 343 17,000  Level New York Center
Fri 09:44:09 40.1814 -76.7781 117° Southeast 293 337 17,000  Level New York Center
Fri 09:45:10 40.1422 -76.6878 120° Southeast 288 331 17,000  Level New York Center
Fri 09:46:10 40.1089 -76.6061 118° Southeast 281 323 17,000  Level New York Center
Fri 09:47:11 40.0656 -76.5103 121° Southeast 286 329 17,000  Level New York Center
Fri 09:48:11 40.0303 -76.4206 117° Southeast 286 329 17,000  Level New York Center
Fri 09:49:10 40.0053 -76.3319 110° East 286 329 17,000  Level New York Center
Fri 09:50:11 39.9850 -76.2328 105° East 281 323 17,000 -344 Level New York Center
Fri 09:51:12 39.9628 -76.1253 105° East 286 329 16,300 -600 Descending New York Center
Fri 09:53:31 39.8675 -75.9106 120° Southeast 285 328 15,000 -693 Descending Washington Center
Fri 09:54:31 39.8175 -75.8292 129° Southeast 290 334 14,000 -1,000 Descending Washington Center
Fri 09:55:31 39.7656 -75.7453 129° Southeast 295 339 13,000 -496 Descending Washington Center
Fri 09:56:32 39.7178 -75.6725 130° Southeast 285 328 13,000  Level Washington Center
Fri 09:57:33 39.6656 -75.6022 134° Southeast 274 315 13,000  Level Washington Center
Fri 09:58:30 39.5969 -75.5861 170° South 247 284 13,000  Level Washington Center
Fri 09:59:31 39.5281 -75.5728 172° South 247 284 13,000  Level Washington Center
Fri 10:00:31 39.4614 -75.5511 166° South 247 284 13,000  Level Washington Center
Fri 10:01:32 39.4133 -75.4814 132° Southeast 238 274 13,000  Level Washington Center
Fri 10:02:32 39.3675 -75.4089 129° Southeast 250 288 13,000 -446 Level Washington Center
Fri 10:03:33 39.3172 -75.3394 133° Southeast 255 293 12,100 -1,350 Descending Washington Center
Fri 10:04:32 39.2631 -75.2619 132° Southeast 266 306 10,300 -1,866 Descending Washington Center
Fri 10:05:32 39.2086 -75.1872 133° Southeast 282 325 8,400 -1,884 Descending Washington Center
Fri 10:06:33 39.1603 -75.1178 132° Southeast 288 331 6,500 -1,866 Descending Washington Center
Fri 10:07:31 39.1081 -75.0486 134° Southeast 288 331 4,700 -1,862 Descending Washington Center
Fri 10:14:00 39.0358 -74.9489 139° Southeast  Level FlightAware Approximate
Fri 10:21:00 39.0085 -74.9086 322° Northwest  Level Estimated
Fri 10:22:00 39.0085 -74.9086 322° Northwest  Level Estimated
Fri 10:23:00 39.0085 -74.9086 322° Northwest  Level Estimated
Fri 10:24:00 39.0085 -74.9086 322° Northwest  Level Estimated
Fri 10:25:00 39.0085 -74.9086 322° Northwest  Level Estimated
Fri 10:26:00 39.0085 -74.9086 322° Northwest  Level Estimated
Fri 10:27:00 39.0085 -74.9086 322° Northwest  Level Estimated
Fri 10:28:00 39.0085 -74.9086 322° Northwest  Level Estimated

Login

Don't have an account? Register now (free) for customized features, flight alerts, and more!